AXCGGARGarmin  id=247  GPS 72 Software Version 2.50|2140330771
HFDTE040213
HFPLTPilot:UNREGISTERED
HFTZOTimezone:1
HFSITSite:
HPGTYGliderType:
HPGIDGliderID:
HFDTM100DATUM:WGS-1984
HFCIDCOMPETITIONID:
HFCCLCOMPETITIONCLASS:
LXCG     ICON:C:\Program Files\CompeGPS\symbols\IconsPlay\cronos.ico
LXCG     COLOR:000119000
I00
B1511453747944N00053977WA0000000165
B1511513747943N00053977WA0000000165
B1511573747931N00053974WA0000000169
B1512033747926N00053963WA0000000168
B1512093747930N00053940WA0000000172
B1512153747924N00053953WA0000000180
B1512213747926N00053982WA0000000185
B1512273747924N00053965WA0000000187
B1512333747926N00053934WA0000000193
B1512393747925N00053903WA0000000196
B1512453747940N00053864WA0000000198
B1512513747957N00053825WA0000000199
B1512573747965N00053787WA0000000201
B1513033747957N00053759WA0000000209
B1513093747952N00053767WA0000000214
B1513153747958N00053792WA0000000219
B1513213747951N00053779WA0000000223
B1513273747948N00053746WA0000000227
B1513333747941N00053733WA0000000231
B1513393747956N00053757WA0000000234
B1513453747950N00053764WA0000000239
B1513513747939N00053759WA0000000248
B1513573747927N00053752WA0000000254
B1514033747918N00053762WA0000000262
B1514093747904N00053764WA0000000265
B1514153747893N00053764WA0000000267
B1514213747884N00053767WA0000000268
B1514273747905N00053784WA0000000268
B1514333747942N00053762WA0000000268
B1514393747940N00053730WA0000000269
B1514453747932N00053696WA0000000271
B1514513747927N00053656WA0000000274
B1514573747929N00053614WA0000000276
B1515033747923N00053602WA0000000275
B1515093747921N00053618WA0000000275
B1515153747921N00053635WA0000000272
B1515213747920N00053652WA0000000268
B1515273747914N00053668WA0000000260
B1515333747907N00053688WA0000000252
B1515393747902N00053718WA0000000240
B1515453747899N00053746WA0000000230
B1515513747893N00053775WA0000000227
B1515573747889N00053800WA0000000223
B1516033747886N00053826WA0000000217
B1516093747885N00053856WA0000000215
B1516153747880N00053884WA0000000216
B1516213747869N00053908WA0000000219
B1516273747857N00053918WA0000000226
B1516333747846N00053927WA0000000231
B1516393747841N00053949WA0000000230
B1516453747838N00053972WA0000000236
B1516513747836N00053994WA0000000237
B1516573747834N00054007WA0000000239
B1517033747831N00054025WA0000000239
B1517093747830N00054046WA0000000246
B1517153747832N00054065WA0000000241
B1517213747838N00054089WA0000000241
B1517273747847N00054111WA0000000242
B1517333747861N00054135WA0000000241
B1517393747874N00054156WA0000000239
B1517453747888N00054177WA0000000241
B1517513747897N00054200WA0000000239
B1517573747899N00054223WA0000000239
B1518033747895N00054243WA0000000240
B1518093747890N00054260WA0000000243
B1518153747885N00054278WA0000000244
B1518213747883N00054300WA0000000245
B1518273747882N00054322WA0000000244
B1518333747884N00054344WA0000000241
B1518393747887N00054366WA0000000235
B1518453747893N00054392WA0000000233
B1518513747905N00054419WA0000000231
B1518573747926N00054445WA0000000231
B1519033747948N00054472WA0000000230
B1519093747971N00054500WA0000000232
B1519153747997N00054520WA0000000232
B1519213748017N00054546WA0000000238
B1519273748025N00054574WA0000000239
B1519333748036N00054604WA0000000245
B1519393748028N00054615WA0000000254
B1519453748015N00054610WA0000000259
B1519513748004N00054589WA0000000263
B1519573747996N00054558WA0000000264
B1520033747988N00054524WA0000000267
B1520093747973N00054497WA0000000271
B1520153747958N00054472WA0000000280
B1520213747948N00054470WA0000000282
B1520273747972N00054491WA0000000283
B1520333748007N00054505WA0000000286
B1520393748035N00054528WA0000000287
B1520453748055N00054556WA0000000292
B1520513748063N00054582WA0000000301
B1520573748060N00054606WA0000000309
B1521033748054N00054623WA0000000317
B1521093748043N00054624WA0000000326
B1521153748038N00054636WA0000000334
B1521213748047N00054658WA0000000338
B1521273748040N00054650WA0000000340
B1521333748046N00054611WA0000000337
B1521393748059N00054566WA0000000336
B1521453748069N00054524WA0000000339
B1521513748059N00054516WA0000000347
B1521573748072N00054536WA0000000352
B1522033748073N00054553WA0000000357
B1522093748068N00054525WA0000000363
B1522153748059N00054508WA0000000368
B1522213748062N00054528WA0000000373
B1522273748062N00054546WA0000000375
B1522333748054N00054533WA0000000374
B1522393748054N00054495WA0000000375
B1522453748046N00054495WA0000000376
B1522513748059N00054519WA0000000376
B1522573748059N00054539WA0000000379
B1523033748056N00054555WA0000000385
B1523093748051N00054565WA0000000390
B1523153748044N00054576WA0000000394
B1523213748040N00054593WA0000000393
B1523273748040N00054610WA0000000388
B1523333748036N00054629WA0000000384
B1523393748031N00054648WA0000000384
B1523453748026N00054667WA0000000385
B1523513748021N00054688WA0000000380
B1523573748017N00054709WA0000000378
B1524033748015N00054731WA0000000377
B1524093748011N00054751WA0000000374
B1524153748007N00054771WA0000000367
B1524213748007N00054794WA0000000363
B1524273748006N00054817WA0000000357
B1524333748005N00054841WA0000000356
B1524393748001N00054868WA0000000359
B1524453747994N00054886WA0000000361
B1524513747988N00054906WA0000000360
B1524573747992N00054935WA0000000359
B1525033747995N00054965WA0000000357
B1525093747999N00054993WA0000000357
B1525153747996N00055017WA0000000358
B1525213747994N00055046WA0000000363
B1525273747989N00055066WA0000000364
B1525333747998N00055095WA0000000362
B1525393748014N00055125WA0000000354
B1525453748033N00055155WA0000000351
B1525513748051N00055187WA0000000347
B1525573748072N00055217WA0000000342
B1526033748095N00055247WA0000000337
B1526093748117N00055279WA0000000327
B1526153748130N00055310WA0000000318
B1526213748127N00055337WA0000000309
B1526273748119N00055349WA0000000303
B1526333748108N00055343WA0000000297
B1526393748098N00055326WA0000000294
B1526453748091N00055311WA0000000292
B1526513748081N00055291WA0000000288
B1526573748072N00055267WA0000000282
B1527033748064N00055237WA0000000277
B1527093748054N00055211WA0000000274
B1527153748046N00055185WA0000000270
B1527213748040N00055158WA0000000268
B1527273748033N00055130WA0000000265
B1527333748026N00055101WA0000000264
B1527393748022N00055074WA0000000264
B1527453748016N00055047WA0000000261
B1527513748009N00055018WA0000000262
B1527573748000N00054990WA0000000266
B1528033747992N00054963WA0000000266
B1528093747987N00054925WA0000000271
B1528153747985N00054887WA0000000275
B1528213747989N00054845WA0000000272
B1528273748003N00054801WA0000000270
B1528333748016N00054763WA0000000269
B1528393748018N00054731WA0000000274
B1528453748018N00054700WA0000000275
B1528513748009N00054673WA0000000279
B1528573748006N00054637WA0000000281
B1529033748013N00054592WA0000000283
B1529093748006N00054570WA0000000288
B1529153747996N00054583WA0000000292
B1529213747987N00054595WA0000000293
B1529273747997N00054620WA0000000293
B1529333748034N00054630WA0000000294
B1529393748063N00054654WA0000000292
B1529453748062N00054675WA0000000296
B1529513748049N00054665WA0000000300
B1529573748050N00054629WA0000000299
B1530033748048N00054591WA0000000306
B1530093748040N00054565WA0000000315
B1530153748024N00054556WA0000000323
B1530213748010N00054538WA0000000324
B1530273748000N00054540WA0000000322
B1530333748027N00054559WA0000000322
B1530393748060N00054576WA0000000321
B1530453748076N00054606WA0000000323
B1530513748079N00054635WA0000000327
B1530573748064N00054651WA0000000341
B1531033748052N00054654WA0000000350
B1531093748036N00054654WA0000000352
B1531153748021N00054646WA0000000353
B1531213748013N00054620WA0000000355
B1531273748013N00054638WA0000000358
B1531333748049N00054639WA0000000358
B1531393748058N00054605WA0000000361
B1531453748043N00054600WA0000000362
B1531513748030N00054606WA0000000365
B1531573748019N00054609WA0000000369
B1532033748005N00054600WA0000000375
B1532093747992N00054581WA0000000378
B1532153748002N00054600WA0000000380
B1532213748040N00054590WA0000000378
B1532273748042N00054556WA0000000378
B1532333748028N00054548WA0000000382
B1532393748015N00054546WA0000000384
B1532453748003N00054551WA0000000384
B1532513748002N00054565WA0000000382
B1532573748036N00054572WA0000000382
B1533033748059N00054535WA0000000382
B1533093748046N00054521WA0000000383
B1533153748031N00054511WA0000000382
B1533213748016N00054498WA0000000382
B1533273748002N00054488WA0000000383
B1533333747984N00054476WA0000000383
B1533393747966N00054467WA0000000382
B1533453747947N00054461WA0000000381
B1533513747931N00054459WA0000000379
B1533573747918N00054459WA0000000380
B1534033747904N00054459WA0000000381
B1534093747888N00054454WA0000000382
B1534153747872N00054450WA0000000381
B1534213747855N00054444WA0000000380
B1534273747838N00054436WA0000000378
B1534333747822N00054430WA0000000378
B1534393747807N00054423WA0000000377
B1534453747794N00054418WA0000000376
B1534513747781N00054411WA0000000371
B1534573747766N00054402WA0000000368
B1535033747749N00054394WA0000000365
B1535093747732N00054385WA0000000361
B1535153747717N00054378WA0000000361
B1535213747702N00054367WA0000000356
B1535273747686N00054357WA0000000352
B1535333747671N00054347WA0000000348
B1535393747656N00054342WA0000000344
B1535453747641N00054337WA0000000336
B1535513747626N00054333WA0000000328
B1535573747604N00054321WA0000000323
B1536033747586N00054313WA0000000314
B1536093747569N00054313WA0000000305
B1536153747551N00054317WA0000000289
B1536213747530N00054314WA0000000277
B1536273747507N00054310WA0000000267
B1536333747490N00054301WA0000000262
B1536393747476N00054292WA0000000259
B1536453747481N00054312WA0000000252
B1536513747523N00054309WA0000000246
B1536573747559N00054279WA0000000246
B1537033747591N00054243WA0000000244
B1537093747621N00054204WA0000000240
B1537153747644N00054163WA0000000231
B1537213747673N00054118WA0000000225
B1537273747706N00054077WA0000000221
B1537333747745N00054041WA0000000215
B1537393747785N00054006WA0000000215
B1537453747818N00053970WA0000000220
B1537513747853N00053934WA0000000218
B1537573747851N00053905WA0000000215
B1538033747855N00053925WA0000000211
B1538093747860N00053951WA0000000216
B1538153747848N00053958WA0000000222
B1538213747838N00053963WA0000000220
B1538273747832N00053975WA0000000219
B1538333747851N00053995WA0000000215
B1538393747891N00053979WA0000000213
B1538453747897N00053936WA0000000212
B1538513747915N00053890WA0000000215
B1538573747918N00053852WA0000000217
B1539033747916N00053867WA0000000216
B1539093747918N00053891WA0000000219
B1539153747918N00053910WA0000000221
B1539213747913N00053908WA0000000225
B1539273747910N00053877WA0000000229
B1539333747905N00053882WA0000000233
B1539393747910N00053907WA0000000238
B1539453747900N00053909WA0000000245
B1539513747889N00053917WA0000000254
B1539573747877N00053911WA0000000259
B1540033747866N00053906WA0000000261
B1540093747865N00053919WA0000000264
B1540153747858N00053919WA0000000264
B1540213747852N00053914WA0000000259
B1540273747870N00053936WA0000000255
B1540333747905N00053911WA0000000254
B1540393747902N00053881WA0000000252
B1540453747901N00053850WA0000000252
B1540513747908N00053810WA0000000250
B1540573747918N00053766WA0000000248
B1541033747930N00053720WA0000000244
B1541093747934N00053678WA0000000245
B1541153747936N00053638WA0000000247
B1541213747936N00053600WA0000000247
B1541273747935N00053607WA0000000242
B1541333747939N00053625WA0000000238
B1541393747928N00053610WA0000000235
B1541453747919N00053580WA0000000233
B1541513747913N00053550WA0000000232
B1541573747912N00053567WA0000000232
B1542033747906N00053580WA0000000236
B1542093747898N00053584WA0000000239
B1542153747895N00053592WA0000000236
B1542213747899N00053611WA0000000230
B1542273747901N00053632WA0000000226
B1542333747904N00053655WA0000000220
B1542393747912N00053679WA0000000212
B1542453747923N00053706WA0000000206
B1542513747933N00053734WA0000000203
B1542573747935N00053760WA0000000203
B1543033747931N00053780WA0000000206
B1543093747923N00053794WA0000000213
B1543153747911N00053796WA0000000216
B1543213747912N00053816WA0000000211
B1543273747916N00053845WA0000000211
B1543333747913N00053866WA0000000213
B1543393747910N00053887WA0000000215
B1543453747904N00053901WA0000000217
B1543513747895N00053911WA0000000217
B1543573747886N00053925WA0000000220
B1544033747879N00053929WA0000000221
B1544093747875N00053944WA0000000218
B1544153747868N00053959WA0000000217
B1544213747860N00053973WA0000000214
B1544273747852N00053986WA0000000214
B1544333747840N00053995WA0000000218
B1544393747831N00054008WA0000000215
B1544453747822N00054018WA0000000214
B1544513747818N00054041WA0000000217
B1544573747819N00054065WA0000000219
B1545033747816N00054085WA0000000221
B1545093747802N00054093WA0000000223
B1545153747801N00054116WA0000000224
B1545213747816N00054141WA0000000227
B1545273747845N00054157WA0000000229
B1545333747869N00054175WA0000000230
B1545393747893N00054197WA0000000232
B1545453747900N00054216WA0000000236
B1545513747892N00054213WA0000000238
B1545573747885N00054185WA0000000239
B1546033747873N00054166WA0000000242
B1546093747860N00054151WA0000000243
B1546153747848N00054138WA0000000244
B1546213747836N00054133WA0000000240
B1546273747823N00054128WA0000000243
B1546333747822N00054138WA0000000240
B1546393747858N00054149WA0000000239
B1546453747886N00054172WA0000000239
B1546513747887N00054191WA0000000243
B1546573747879N00054202WA0000000250
B1547033747871N00054206WA0000000257
B1547093747866N00054212WA0000000260
B1547153747862N00054219WA0000000264
B1547213747853N00054225WA0000000269
B1547273747844N00054229WA0000000272
B1547333747836N00054232WA0000000275
B1547393747832N00054241WA0000000275
B1547453747867N00054241WA0000000275
B1547513747880N00054204WA0000000276
B1547573747867N00054186WA0000000278
B1548033747854N00054174WA0000000277
B1548093747842N00054163WA0000000276
B1548153747834N00054166WA0000000274
B1548213747835N00054186WA0000000276
B1548273747834N00054199WA0000000274
B1548333747834N00054216WA0000000272
B1548393747830N00054231WA0000000271
B1548453747829N00054248WA0000000271
B1548513747829N00054268WA0000000271
B1548573747823N00054280WA0000000272
B1549033747817N00054293WA0000000266
B1549093747814N00054315WA0000000267
B1549153747812N00054333WA0000000267
B1549213747814N00054352WA0000000266
B1549273747817N00054374WA0000000259
B1549333747831N00054402WA0000000255
B1549393747852N00054425WA0000000260
B1549453747853N00054440WA0000000262
B1549513747844N00054438WA0000000260
B1549573747831N00054425WA0000000261
B1550033747817N00054415WA0000000261
B1550093747813N00054425WA0000000260
B1550153747845N00054435WA0000000258
B1550213747885N00054447WA0000000256
B1550273747909N00054468WA0000000259
B1550333747923N00054491WA0000000262
B1550393747934N00054514WA0000000267
B1550453747945N00054536WA0000000268
B1550513747936N00054538WA0000000264
B1550573747931N00054503WA0000000271
B1551033747922N00054477WA0000000273
B1551093747910N00054459WA0000000277
B1551153747908N00054469WA0000000276
B1551213747909N00054485WA0000000273
B1551273747909N00054505WA0000000273
B1551333747903N00054521WA0000000272
B1551393747896N00054531WA0000000275
B1551453747887N00054538WA0000000273
B1551513747892N00054560WA0000000270
B1551573747900N00054587WA0000000266
B1552033747909N00054615WA0000000263
B1552093747919N00054643WA0000000260
B1552153747929N00054668WA0000000258
B1552213747937N00054695WA0000000256
B1552273747944N00054718WA0000000254
B1552333747936N00054723WA0000000254
B1552393747923N00054717WA0000000256
B1552453747911N00054707WA0000000257
B1552513747903N00054716WA0000000254
B1552573747931N00054730WA0000000255
B1553033747950N00054748WA0000000258
B1553093747944N00054764WA0000000264
B1553153747939N00054780WA0000000266
B1553213747947N00054805WA0000000266
B1553273747951N00054823WA0000000267
B1553333747942N00054822WA0000000265
B1553393747945N00054781WA0000000265
B1553453747983N00054758WA0000000266
B1553513748006N00054781WA0000000266
B1553573748006N00054798WA0000000265
B1554033748002N00054816WA0000000264
B1554093748000N00054833WA0000000266
B1554153747997N00054853WA0000000268
B1554213747993N00054863WA0000000271
B1554273747981N00054861WA0000000270
B1554333747977N00054873WA0000000269
B1554393747980N00054892WA0000000267
B1554453747983N00054912WA0000000267
B1554513747988N00054932WA0000000269
B1554573748009N00054952WA0000000271
B1555033748010N00054962WA0000000274
B1555093748005N00054928WA0000000276
B1555153748002N00054897WA0000000278
B1555213748000N00054906WA0000000279
B1555273748006N00054924WA0000000279
B1555333748012N00054942WA0000000279
B1555393748018N00054961WA0000000281
B1555453748031N00054980WA0000000284
B1555513748031N00054989WA0000000285
B1555573748023N00054964WA0000000287
B1556033748018N00054964WA0000000288
B1556093748022N00054982WA0000000292
B1556153748037N00055000WA0000000293
B1556213748039N00055011WA0000000293
B1556273748031N00054991WA0000000294
B1556333748024N00054974WA0000000293
B1556393748029N00054994WA0000000295
B1556453748034N00055013WA0000000297
B1556513748030N00055022WA0000000297
B1556573748043N00055044WA0000000298
B1557033748067N00055067WA0000000296
B1557093748087N00055093WA0000000296
B1557153748100N00055118WA0000000299
B1557213748113N00055141WA0000000300
B1557273748121N00055165WA0000000298
B1557333748123N00055183WA0000000296
B1557393748126N00055202WA0000000293
B1557453748130N00055222WA0000000290
B1557513748133N00055241WA0000000285
B1557573748136N00055259WA0000000280
B1558033748138N00055277WA0000000275
B1558093748127N00055275WA0000000272
B1558153748116N00055261WA0000000269
B1558213748105N00055242WA0000000263
B1558273748094N00055222WA0000000261
B1558333748085N00055207WA0000000264
B1558393748074N00055185WA0000000260
B1558453748064N00055160WA0000000258
B1558513748053N00055138WA0000000257
B1558573748042N00055115WA0000000255
B1559033748034N00055095WA0000000256
B1559093748026N00055073WA0000000258
B1559153748019N00055042WA0000000258
B1559213748018N00055004WA0000000260
B1559273748018N00054966WA0000000262
B1559333748013N00054961WA0000000265
B1559393748027N00054981WA0000000266
B1559453748036N00055001WA0000000267
B1559513748030N00054994WA0000000269
B1559573748023N00054974WA0000000272
B1600033748030N00054990WA0000000274
B1600093748045N00055013WA0000000276
B1600153748045N00055022WA0000000278
B1600213748036N00055006WA0000000279
B1600273748032N00054976WA0000000280
B1600333748026N00054946WA0000000280
B1600393748022N00054913WA0000000280
B1600453748019N00054875WA0000000283
B1600513748018N00054840WA0000000288
B1600573748011N00054825WA0000000290
B1601033748010N00054838WA0000000293
B1601093748013N00054856WA0000000291
B1601153748010N00054867WA0000000292
B1601213748005N00054877WA0000000295
B1601273747999N00054884WA0000000294
B1601333748007N00054906WA0000000298
B1601393748019N00054930WA0000000295
B1601453748022N00054948WA0000000296
B1601513748014N00054933WA0000000296
B1601573748014N00054896WA0000000297
B1602033748018N00054854WA0000000300
B1602093748022N00054812WA0000000303
B1602153748015N00054809WA0000000303
B1602213748017N00054828WA0000000303
B1602273748011N00054835WA0000000302
B1602333748003N00054837WA0000000300
B1602393747997N00054847WA0000000299
B1602453747994N00054859WA0000000301
B1602513747989N00054868WA0000000302
B1602573747983N00054872WA0000000303
B1603033747976N00054879WA0000000301
B1603093747977N00054891WA0000000303
B1603153747993N00054910WA0000000306
B1603213748004N00054930WA0000000309
B1603273747998N00054935WA0000000308
B1603333747989N00054931WA0000000310
B1603393747980N00054926WA0000000309
B1603453747975N00054932WA0000000307
B1603513747993N00054952WA0000000311
B1603573748019N00054970WA0000000310
B1604033748030N00054991WA0000000310
B1604093748029N00055004WA0000000307
B1604153748025N00055016WA0000000303
B1604213748021N00055030WA0000000302
B1604273748017N00055045WA0000000302
B1604333748012N00055061WA0000000301
B1604393748007N00055072WA0000000299
B1604453748004N00055087WA0000000299
B1604513747998N00055103WA0000000297
B1604573747992N00055116WA0000000293
B1605033747987N00055129WA0000000290
B1605093747978N00055146WA0000000284
B1605153747972N00055168WA0000000277
B1605213747968N00055190WA0000000270
B1605273747960N00055210WA0000000263
B1605333747951N00055211WA0000000257
B1605393747943N00055177WA0000000253
B1605453747939N00055142WA0000000250
B1605513747941N00055096WA0000000245
B1605573747951N00055046WA0000000244
B1606033747970N00054996WA0000000243
B1606093747990N00054946WA0000000244
B1606153748004N00054903WA0000000248
B1606213748017N00054861WA0000000252
B1606273748023N00054821WA0000000257
B1606333748030N00054784WA0000000261
B1606393748035N00054749WA0000000265
B1606453748038N00054709WA0000000271
B1606513748044N00054670WA0000000277
B1606573748046N00054634WA0000000282
B1607033748051N00054592WA0000000289
B1607093748053N00054552WA0000000301
B1607153748044N00054520WA0000000306
B1607213748038N00054523WA0000000309
B1607273748055N00054546WA0000000317
B1607333748060N00054572WA0000000324
B1607393748058N00054588WA0000000328
B1607453748052N00054598WA0000000332
B1607513748047N00054612WA0000000338
B1607573748041N00054617WA0000000346
B1608033748029N00054610WA0000000349
B1608093748018N00054604WA0000000351
B1608153748032N00054622WA0000000352
B1608213748039N00054642WA0000000354
B1608273748029N00054625WA0000000355
B1608333748042N00054580WA0000000354
B1608393748049N00054534WA0000000355
B1608453748042N00054514WA0000000359
B1608513748039N00054526WA0000000365
B1608573748028N00054520WA0000000368
B1609033748019N00054509WA0000000370
B1609093748041N00054523WA0000000374
B1609153748051N00054539WA0000000377
B1609213748038N00054523WA0000000381
B1609273748023N00054502WA0000000384
B1609333748009N00054486WA0000000387
B1609393748018N00054498WA0000000388
B1609453748055N00054501WA0000000390
B1609513748061N00054515WA0000000393
B1609573748050N00054499WA0000000397
B1610033748040N00054491WA0000000401
B1610093748038N00054500WA0000000404
B1610153748049N00054513WA0000000407
B1610213748065N00054528WA0000000411
B1610273748058N00054524WA0000000412
B1610333748046N00054503WA0000000412
B1610393748035N00054496WA0000000413
B1610453748039N00054508WA0000000413
B1610513748058N00054526WA0000000420
B1610573748069N00054545WA0000000421
B1611033748075N00054563WA0000000423
B1611093748075N00054578WA0000000424
B1611153748079N00054596WA0000000424
B1611213748086N00054614WA0000000425
B1611273748081N00054622WA0000000422
B1611333748071N00054596WA0000000424
B1611393748070N00054553WA0000000425
B1611453748061N00054523WA0000000426
B1611513748057N00054527WA0000000427
B1611573748064N00054543WA0000000429
B1612033748056N00054539WA0000000430
B1612093748043N00054513WA0000000431
B1612153748031N00054505WA0000000433
B1612213748019N00054495WA0000000435
B1612273748005N00054485WA0000000435
B1612333747992N00054479WA0000000436
B1612393747980N00054477WA0000000436
B1612453747978N00054486WA0000000437
B1612513748012N00054491WA0000000438
B1612573748043N00054498WA0000000440
B1613033748048N00054510WA0000000439
B1613093748037N00054494WA0000000439
B1613153748028N00054489WA0000000440
B1613213748048N00054503WA0000000439
B1613273748069N00054517WA0000000441
B1613333748063N00054512WA0000000438
B1613393748054N00054496WA0000000438
B1613453748061N00054511WA0000000438
B1613513748072N00054528WA0000000437
B1613573748069N00054538WA0000000438
B1614033748060N00054532WA0000000438
B1614093748049N00054513WA0000000441
B1614153748037N00054508WA0000000442
B1614213748028N00054508WA0000000443
B1614273748017N00054507WA0000000444
B1614333748005N00054504WA0000000444
B1614393747993N00054498WA0000000442
B1614453747980N00054490WA0000000440
B1614513747970N00054487WA0000000437
B1614573747959N00054484WA0000000436
B1615033747946N00054480WA0000000433
B1615093747933N00054475WA0000000428
B1615153747920N00054466WA0000000426
B1615213747910N00054461WA0000000424
B1615273747898N00054460WA0000000419
B1615333747885N00054462WA0000000415
B1615393747872N00054464WA0000000413
B1615453747857N00054464WA0000000411
B1615513747842N00054461WA0000000407
B1615573747830N00054458WA0000000402
B1616033747815N00054456WA0000000399
B1616093747799N00054451WA0000000394
B1616153747782N00054445WA0000000388
B1616213747765N00054438WA0000000380
B1616273747749N00054433WA0000000375
B1616333747735N00054432WA0000000370
B1616393747722N00054433WA0000000363
B1616453747707N00054431WA0000000356
B1616513747692N00054428WA0000000350
B1616573747675N00054425WA0000000340
B1617033747659N00054421WA0000000333
B1617093747644N00054419WA0000000327
B1617153747628N00054422WA0000000318
B1617213747611N00054419WA0000000313
B1617273747595N00054419WA0000000302
B1617333747579N00054420WA0000000294
B1617393747563N00054418WA0000000285
B1617453747546N00054415WA0000000276
B1617513747535N00054408WA0000000269
B1617573747522N00054397WA0000000259
B1618033747537N00054349WA0000000245
B1618093747572N00054312WA0000000238
B1618153747607N00054278WA0000000233
B1618213747640N00054240WA0000000227
B1618273747672N00054201WA0000000222
B1618333747704N00054161WA0000000220
B1618393747747N00054135WA0000000219
B1618453747794N00054131WA0000000215
B1618513747837N00054139WA0000000212
B1618573747872N00054156WA0000000215
B1619033747906N00054178WA0000000221
B1619093747925N00054204WA0000000228
B1619153747918N00054201WA0000000234
B1619213747910N00054185WA0000000239
B1619273747902N00054183WA0000000241
B1619333747889N00054174WA0000000247
B1619393747879N00054160WA0000000249
B1619453747870N00054149WA0000000251
B1619513747860N00054135WA0000000248
B1619573747857N00054090WA0000000247
B1620033747859N00054040WA0000000246
B1620093747869N00053993WA0000000246
B1620153747863N00053971WA0000000243
B1620213747858N00053941WA0000000241
B1620273747877N00053889WA0000000239
B1620333747908N00053839WA0000000237
B1620393747939N00053789WA0000000238
B1620453747951N00053741WA0000000243
B1620513747948N00053704WA0000000244
B1620573747945N00053708WA0000000239
B1621033747936N00053684WA0000000235
B1621093747931N00053647WA0000000235
B1621153747929N00053603WA0000000236
B1621213747923N00053601WA0000000231
B1621273747924N00053613WA0000000232
B1621333747923N00053623WA0000000231
B1621393747925N00053633WA0000000227
B1621453747927N00053652WA0000000227
B1621513747928N00053670WA0000000227
B1621573747926N00053683WA0000000224
B1622033747923N00053693WA0000000222
B1622093747920N00053710WA0000000220
B1622153747913N00053725WA0000000223
B1622213747907N00053737WA0000000221
B1622273747901N00053746WA0000000217
B1622333747896N00053759WA0000000213
B1622393747891N00053771WA0000000210
B1622453747885N00053786WA0000000206
B1622513747880N00053795WA0000000204
B1622573747875N00053805WA0000000203
B1623033747870N00053817WA0000000201
B1623093747866N00053829WA0000000197
B1623153747859N00053841WA0000000187
B1623213747850N00053859WA0000000182
B1623273747839N00053879WA0000000178
B1623333747827N00053896WA0000000175
B1623393747817N00053911WA0000000169
B1623453747811N00053930WA0000000165
B1623513747800N00053947WA0000000160
B1623573747792N00053964WA0000000153
B1624033747781N00053974WA0000000146
B1624093747779N00053936WA0000000139
B1624153747778N00053936WA0000000128
B1624213747809N00053910WA0000000121
B1624273747811N00053922WA0000000115
B1624333747805N00053914WA0000000110
B1624393747800N00053920WA0000000104
B1624453747802N00053932WA0000000095
B1624513747789N00053919WA0000000090
B1624573747798N00053945WA0000000085
B1625033747794N00053965WA0000000073
B1625093747784N00053977WA0000000067
LXCG     VERSION:5.7
GAA23DE95CA4E490AC2A16F90005F38A3044F1E62D2AC788023D94C8EB929F0FC3B14D
GFCD2E0B98B7A4F83E07981B8B2E569161625FCCF97A4C196516873A20FAFD78B82D
G4BF350E22CDB66CF58D098EF5816036D1A72187F58ED62567C8705AA34F08E77BC6
GF2CCB852B06FD0A6D437B393B2CF9503E7489FAF85098D835BBA38E4E1316